sensor_id;sensor_type;location;lat;lon;timestamp;P1;durP1;ratioP1;P2;durP2;ratioP2
17686;SDS011;8962;52.538;13.266;2023-07-29T00:00:58;11.70;;;9.07;;
17686;SDS011;8962;52.538;13.266;2023-07-29T00:03:26;14.25;;;9.77;;
17686;SDS011;8962;52.538;13.266;2023-07-29T00:05:55;13.40;;;9.63;;
17686;SDS011;8962;52.538;13.266;2023-07-29T00:08:22;9.82;;;8.40;;
17686;SDS011;8962;52.538;13.266;2023-07-29T00:10:48;11.52;;;8.63;;
17686;SDS011;8962;52.538;13.266;2023-07-29T00:13:16;13.30;;;9.50;;
17686;SDS011;8962;52.538;13.266;2023-07-29T00:15:44;12.70;;;9.65;;
17686;SDS011;8962;52.538;13.266;2023-07-29T00:18:12;15.73;;;10.35;;
17686;SDS011;8962;52.538;13.266;2023-07-29T00:20:39;11.02;;;9.07;;
17686;SDS011;8962;52.538;13.266;2023-07-29T00:23:06;12.98;;;10.25;;
17686;SDS011;8962;52.538;13.266;2023-07-29T00:25:33;12.73;;;9.82;;
17686;SDS011;8962;52.538;13.266;2023-07-29T00:28:01;11.75;;;10.45;;
17686;SDS011;8962;52.538;13.266;2023-07-29T00:30:28;14.63;;;10.40;;
17686;SDS011;8962;52.538;13.266;2023-07-29T00:32:57;13.80;;;11.00;;
17686;SDS011;8962;52.538;13.266;2023-07-29T00:35:24;15.75;;;11.13;;
17686;SDS011;8962;52.538;13.266;2023-07-29T00:37:52;15.52;;;10.77;;
17686;SDS011;8962;52.538;13.266;2023-07-29T00:40:20;14.68;;;11.07;;
17686;SDS011;8962;52.538;13.266;2023-07-29T00:42:50;14.13;;;10.60;;
17686;SDS011;8962;52.538;13.266;2023-07-29T00:45:18;14.60;;;11.27;;
17686;SDS011;8962;52.538;13.266;2023-07-29T00:47:45;13.02;;;10.70;;
17686;SDS011;8962;52.538;13.266;2023-07-29T00:50:14;14.23;;;10.98;;
17686;SDS011;8962;52.538;13.266;2023-07-29T00:52:42;13.57;;;10.38;;
17686;SDS011;8962;52.538;13.266;2023-07-29T00:55:09;18.13;;;11.35;;
17686;SDS011;8962;52.538;13.266;2023-07-29T00:57:36;14.25;;;11.48;;
17686;SDS011;8962;52.538;13.266;2023-07-29T01:00:05;14.07;;;11.40;;
17686;SDS011;8962;52.538;13.266;2023-07-29T01:02:34;16.58;;;11.73;;
17686;SDS011;8962;52.538;13.266;2023-07-29T01:05:02;18.58;;;11.65;;
17686;SDS011;8962;52.538;13.266;2023-07-29T01:07:33;15.25;;;11.18;;
17686;SDS011;8962;52.538;13.266;2023-07-29T01:10:07;15.65;;;11.93;;
17686;SDS011;8962;52.538;13.266;2023-07-29T01:12:48;13.23;;;10.68;;
17686;SDS011;8962;52.538;13.266;2023-07-29T01:15:21;15.55;;;10.90;;
17686;SDS011;8962;52.538;13.266;2023-07-29T01:17:52;16.48;;;11.45;;
17686;SDS011;8962;52.538;13.266;2023-07-29T01:20:22;13.63;;;10.98;;
17686;SDS011;8962;52.538;13.266;2023-07-29T01:22:53;12.70;;;10.45;;
17686;SDS011;8962;52.538;13.266;2023-07-29T01:25:22;14.05;;;11.32;;
17686;SDS011;8962;52.538;13.266;2023-07-29T01:27:50;13.48;;;10.68;;
17686;SDS011;8962;52.538;13.266;2023-07-29T01:30:18;16.60;;;11.02;;
17686;SDS011;8962;52.538;13.266;2023-07-29T01:32:48;16.30;;;11.02;;
17686;SDS011;8962;52.538;13.266;2023-07-29T01:35:21;12.55;;;10.30;;
17686;SDS011;8962;52.538;13.266;2023-07-29T01:37:51;13.13;;;10.73;;
17686;SDS011;8962;52.538;13.266;2023-07-29T01:40:23;13.35;;;11.20;;
17686;SDS011;8962;52.538;13.266;2023-07-29T01:42:55;13.27;;;10.75;;
17686;SDS011;8962;52.538;13.266;2023-07-29T01:45:23;14.15;;;10.15;;
17686;SDS011;8962;52.538;13.266;2023-07-29T01:47:51;12.02;;;10.70;;
17686;SDS011;8962;52.538;13.266;2023-07-29T01:50:20;16.55;;;12.35;;
17686;SDS011;8962;52.538;13.266;2023-07-29T01:52:48;16.60;;;11.27;;
17686;SDS011;8962;52.538;13.266;2023-07-29T01:55:15;14.65;;;11.68;;
17686;SDS011;8962;52.538;13.266;2023-07-29T01:57:44;15.73;;;12.38;;
17686;SDS011;8962;52.538;13.266;2023-07-29T02:00:12;14.13;;;11.45;;
17686;SDS011;8962;52.538;13.266;2023-07-29T02:02:44;13.93;;;11.25;;
17686;SDS011;8962;52.538;13.266;2023-07-29T02:05:11;15.35;;;11.52;;
17686;SDS011;8962;52.538;13.266;2023-07-29T02:07:39;18.05;;;11.38;;
17686;SDS011;8962;52.538;13.266;2023-07-29T02:10:07;15.63;;;11.60;;
17686;SDS011;8962;52.538;13.266;2023-07-29T02:12:35;13.38;;;11.23;;
17686;SDS011;8962;52.538;13.266;2023-07-29T02:15:04;16.42;;;12.32;;
17686;SDS011;8962;52.538;13.266;2023-07-29T02:17:32;16.33;;;12.55;;
17686;SDS011;8962;52.538;13.266;2023-07-29T02:19:59;15.73;;;12.45;;
17686;SDS011;8962;52.538;13.266;2023-07-29T02:22:27;19.35;;;12.98;;
17686;SDS011;8962;52.538;13.266;2023-07-29T02:24:54;15.48;;;12.65;;
17686;SDS011;8962;52.538;13.266;2023-07-29T02:27:21;16.83;;;12.18;;
17686;SDS011;8962;52.538;13.266;2023-07-29T02:29:50;15.60;;;12.63;;
17686;SDS011;8962;52.538;13.266;2023-07-29T02:32:19;16.95;;;12.57;;
17686;SDS011;8962;52.538;13.266;2023-07-29T02:34:46;14.40;;;12.18;;
17686;SDS011;8962;52.538;13.266;2023-07-29T02:37:15;15.43;;;12.50;;
17686;SDS011;8962;52.538;13.266;2023-07-29T02:39:42;16.65;;;12.40;;
17686;SDS011;8962;52.538;13.266;2023-07-29T02:42:12;18.63;;;12.35;;
17686;SDS011;8962;52.538;13.266;2023-07-29T02:44:43;15.93;;;12.25;;
17686;SDS011;8962;52.538;13.266;2023-07-29T02:47:11;15.80;;;11.93;;
17686;SDS011;8962;52.538;13.266;2023-07-29T02:49:40;18.13;;;11.90;;
17686;SDS011;8962;52.538;13.266;2023-07-29T02:52:07;15.27;;;12.70;;
17686;SDS011;8962;52.538;13.266;2023-07-29T02:54:34;16.77;;;11.52;;
17686;SDS011;8962;52.538;13.266;2023-07-29T02:57:02;15.68;;;11.68;;
17686;SDS011;8962;52.538;13.266;2023-07-29T02:59:30;18.38;;;11.43;;
17686;SDS011;8962;52.538;13.266;2023-07-29T03:01:57;18.83;;;12.38;;
17686;SDS011;8962;52.538;13.266;2023-07-29T03:04:27;17.70;;;12.77;;
17686;SDS011;8962;52.538;13.266;2023-07-29T03:06:56;15.85;;;12.45;;
17686;SDS011;8962;52.538;13.266;2023-07-29T03:09:26;16.75;;;12.52;;
17686;SDS011;8962;52.538;13.266;2023-07-29T03:11:55;14.88;;;12.00;;
17686;SDS011;8962;52.538;13.266;2023-07-29T03:14:22;16.00;;;12.25;;
17686;SDS011;8962;52.538;13.266;2023-07-29T03:16:49;18.52;;;13.38;;
17686;SDS011;8962;52.538;13.266;2023-07-29T03:19:17;17.40;;;12.38;;
17686;SDS011;8962;52.538;13.266;2023-07-29T03:21:45;18.17;;;13.05;;
17686;SDS011;8962;52.538;13.266;2023-07-29T03:24:14;20.33;;;13.13;;
17686;SDS011;8962;52.538;13.266;2023-07-29T03:26:42;18.05;;;13.18;;
17686;SDS011;8962;52.538;13.266;2023-07-29T03:29:09;19.52;;;12.90;;
17686;SDS011;8962;52.538;13.266;2023-07-29T03:31:38;16.17;;;12.98;;
17686;SDS011;8962;52.538;13.266;2023-07-29T03:34:06;18.35;;;12.88;;
17686;SDS011;8962;52.538;13.266;2023-07-29T03:36:33;17.95;;;12.63;;
17686;SDS011;8962;52.538;13.266;2023-07-29T03:39:01;15.68;;;12.30;;
17686;SDS011;8962;52.538;13.266;2023-07-29T03:41:30;18.65;;;13.25;;
17686;SDS011;8962;52.538;13.266;2023-07-29T03:43:57;16.35;;;12.68;;
17686;SDS011;8962;52.538;13.266;2023-07-29T03:46:24;19.85;;;13.60;;
17686;SDS011;8962;52.538;13.266;2023-07-29T03:48:52;17.83;;;13.68;;
17686;SDS011;8962;52.538;13.266;2023-07-29T03:51:20;17.25;;;12.93;;
17686;SDS011;8962;52.538;13.266;2023-07-29T03:53:49;16.33;;;13.10;;
17686;SDS011;8962;52.538;13.266;2023-07-29T03:56:16;20.70;;;13.93;;
17686;SDS011;8962;52.538;13.266;2023-07-29T03:58:45;15.20;;;12.32;;
17686;SDS011;8962;52.538;13.266;2023-07-29T04:01:13;18.25;;;12.85;;
17686;SDS011;8962;52.538;13.266;2023-07-29T04:03:40;17.60;;;13.35;;
17686;SDS011;8962;52.538;13.266;2023-07-29T04:06:08;17.05;;;13.43;;
17686;SDS011;8962;52.538;13.266;2023-07-29T04:08:35;19.38;;;13.40;;
17686;SDS011;8962;52.538;13.266;2023-07-29T04:11:03;17.70;;;13.02;;
17686;SDS011;8962;52.538;13.266;2023-07-29T04:13:30;16.27;;;12.65;;
17686;SDS011;8962;52.538;13.266;2023-07-29T04:15:59;16.67;;;12.45;;
17686;SDS011;8962;52.538;13.266;2023-07-29T04:18:27;16.23;;;13.25;;
17686;SDS011;8962;52.538;13.266;2023-07-29T04:20:55;17.63;;;13.55;;
17686;SDS011;8962;52.538;13.266;2023-07-29T04:23:22;16.75;;;13.40;;
17686;SDS011;8962;52.538;13.266;2023-07-29T04:25:49;16.40;;;13.32;;
17686;SDS011;8962;52.538;13.266;2023-07-29T04:28:17;19.35;;;13.48;;
17686;SDS011;8962;52.538;13.266;2023-07-29T04:30:44;17.70;;;12.45;;
17686;SDS011;8962;52.538;13.266;2023-07-29T04:33:13;14.85;;;12.30;;
17686;SDS011;8962;52.538;13.266;2023-07-29T04:35:40;14.60;;;12.52;;
17686;SDS011;8962;52.538;13.266;2023-07-29T04:38:07;14.88;;;12.25;;
17686;SDS011;8962;52.538;13.266;2023-07-29T04:40:35;13.98;;;11.77;;
17686;SDS011;8962;52.538;13.266;2023-07-29T04:43:02;13.80;;;11.57;;
17686;SDS011;8962;52.538;13.266;2023-07-29T04:45:29;14.50;;;11.43;;
17686;SDS011;8962;52.538;13.266;2023-07-29T04:47:56;11.63;;;10.38;;
17686;SDS011;8962;52.538;13.266;2023-07-29T04:50:26;16.13;;;11.27;;
17686;SDS011;8962;52.538;13.266;2023-07-29T04:52:53;14.82;;;10.80;;
17686;SDS011;8962;52.538;13.266;2023-07-29T04:55:20;15.65;;;11.40;;
17686;SDS011;8962;52.538;13.266;2023-07-29T04:57:48;15.45;;;10.80;;
17686;SDS011;8962;52.538;13.266;2023-07-29T05:00:15;11.80;;;10.60;;
17686;SDS011;8962;52.538;13.266;2023-07-29T05:02:43;12.35;;;9.45;;
17686;SDS011;8962;52.538;13.266;2023-07-29T05:05:10;12.25;;;10.35;;
17686;SDS011;8962;52.538;13.266;2023-07-29T05:07:38;12.65;;;10.77;;
17686;SDS011;8962;52.538;13.266;2023-07-29T05:10:06;11.60;;;9.10;;
17686;SDS011;8962;52.538;13.266;2023-07-29T05:12:34;10.95;;;9.80;;
17686;SDS011;8962;52.538;13.266;2023-07-29T05:15:01;11.55;;;8.65;;
17686;SDS011;8962;52.538;13.266;2023-07-29T05:17:30;12.20;;;9.23;;
17686;SDS011;8962;52.538;13.266;2023-07-29T05:19:57;9.95;;;8.70;;
17686;SDS011;8962;52.538;13.266;2023-07-29T05:22:25;10.30;;;8.82;;
17686;SDS011;8962;52.538;13.266;2023-07-29T05:24:53;10.55;;;8.75;;
17686;SDS011;8962;52.538;13.266;2023-07-29T05:27:21;11.93;;;8.68;;
17686;SDS011;8962;52.538;13.266;2023-07-29T05:29:48;11.40;;;8.90;;
17686;SDS011;8962;52.538;13.266;2023-07-29T05:32:17;11.80;;;8.38;;
17686;SDS011;8962;52.538;13.266;2023-07-29T05:34:44;9.02;;;7.78;;
17686;SDS011;8962;52.538;13.266;2023-07-29T05:37:11;9.93;;;8.57;;
17686;SDS011;8962;52.538;13.266;2023-07-29T05:39:38;8.88;;;7.97;;
17686;SDS011;8962;52.538;13.266;2023-07-29T05:42:09;10.35;;;8.35;;
17686;SDS011;8962;52.538;13.266;2023-07-29T05:44:36;13.13;;;8.88;;
17686;SDS011;8962;52.538;13.266;2023-07-29T05:47:03;9.50;;;8.00;;
17686;SDS011;8962;52.538;13.266;2023-07-29T05:49:31;12.77;;;8.13;;
17686;SDS011;8962;52.538;13.266;2023-07-29T05:51:59;9.43;;;8.43;;
17686;SDS011;8962;52.538;13.266;2023-07-29T05:54:26;9.00;;;8.10;;
17686;SDS011;8962;52.538;13.266;2023-07-29T05:56:53;9.32;;;7.70;;
17686;SDS011;8962;52.538;13.266;2023-07-29T05:59:25;9.50;;;8.05;;
17686;SDS011;8962;52.538;13.266;2023-07-29T06:01:55;9.25;;;7.15;;
17686;SDS011;8962;52.538;13.266;2023-07-29T06:04:24;8.80;;;7.45;;
17686;SDS011;8962;52.538;13.266;2023-07-29T06:06:51;9.60;;;8.23;;
17686;SDS011;8962;52.538;13.266;2023-07-29T06:09:18;8.88;;;7.60;;
17686;SDS011;8962;52.538;13.266;2023-07-29T06:11:46;9.35;;;8.35;;
17686;SDS011;8962;52.538;13.266;2023-07-29T06:14:14;10.77;;;8.35;;
17686;SDS011;8962;52.538;13.266;2023-07-29T06:16:43;10.40;;;7.70;;
17686;SDS011;8962;52.538;13.266;2023-07-29T06:19:11;9.75;;;7.50;;
17686;SDS011;8962;52.538;13.266;2023-07-29T06:21:41;10.90;;;7.75;;
17686;SDS011;8962;52.538;13.266;2023-07-29T06:24:10;8.65;;;7.47;;
17686;SDS011;8962;52.538;13.266;2023-07-29T06:26:38;8.05;;;7.20;;
17686;SDS011;8962;52.538;13.266;2023-07-29T06:29:07;9.43;;;7.22;;
17686;SDS011;8962;52.538;13.266;2023-07-29T06:31:34;8.40;;;7.45;;
17686;SDS011;8962;52.538;13.266;2023-07-29T06:34:04;7.90;;;7.10;;
17686;SDS011;8962;52.538;13.266;2023-07-29T06:36:31;8.10;;;7.00;;
17686;SDS011;8962;52.538;13.266;2023-07-29T06:38:58;7.78;;;6.95;;
17686;SDS011;8962;52.538;13.266;2023-07-29T06:41:28;9.55;;;6.47;;
17686;SDS011;8962;52.538;13.266;2023-07-29T06:43:59;7.80;;;6.47;;
17686;SDS011;8962;52.538;13.266;2023-07-29T06:46:26;8.05;;;6.18;;
17686;SDS011;8962;52.538;13.266;2023-07-29T06:48:53;7.43;;;6.35;;
17686;SDS011;8962;52.538;13.266;2023-07-29T06:51:22;8.10;;;6.03;;
17686;SDS011;8962;52.538;13.266;2023-07-29T06:53:50;6.63;;;5.40;;
17686;SDS011;8962;52.538;13.266;2023-07-29T06:56:17;6.38;;;5.07;;
17686;SDS011;8962;52.538;13.266;2023-07-29T06:58:44;7.10;;;5.55;;
17686;SDS011;8962;52.538;13.266;2023-07-29T07:01:11;5.80;;;5.20;;
17686;SDS011;8962;52.538;13.266;2023-07-29T07:03:39;6.13;;;5.00;;
17686;SDS011;8962;52.538;13.266;2023-07-29T07:06:06;6.38;;;5.18;;
17686;SDS011;8962;52.538;13.266;2023-07-29T07:08:35;6.85;;;5.10;;
17686;SDS011;8962;52.538;13.266;2023-07-29T07:11:03;6.30;;;5.50;;
17686;SDS011;8962;52.538;13.266;2023-07-29T07:13:30;7.35;;;5.30;;
17686;SDS011;8962;52.538;13.266;2023-07-29T07:15:57;7.55;;;5.10;;
17686;SDS011;8962;52.538;13.266;2023-07-29T07:18:24;5.50;;;5.00;;
17686;SDS011;8962;52.538;13.266;2023-07-29T07:20:52;8.23;;;5.90;;
17686;SDS011;8962;52.538;13.266;2023-07-29T07:23:19;6.80;;;5.65;;
17686;SDS011;8962;52.538;13.266;2023-07-29T07:25:48;6.95;;;5.32;;
17686;SDS011;8962;52.538;13.266;2023-07-29T07:28:15;7.15;;;5.20;;
17686;SDS011;8962;52.538;13.266;2023-07-29T07:30:42;7.10;;;5.57;;
17686;SDS011;8962;52.538;13.266;2023-07-29T07:33:10;8.20;;;5.13;;
17686;SDS011;8962;52.538;13.266;2023-07-29T07:35:39;6.20;;;4.97;;
17686;SDS011;8962;52.538;13.266;2023-07-29T07:38:07;6.55;;;4.80;;
17686;SDS011;8962;52.538;13.266;2023-07-29T07:40:35;6.88;;;5.40;;
17686;SDS011;8962;52.538;13.266;2023-07-29T07:43:04;5.82;;;5.22;;
17686;SDS011;8962;52.538;13.266;2023-07-29T07:45:32;5.07;;;4.63;;
17686;SDS011;8962;52.538;13.266;2023-07-29T07:47:59;5.93;;;5.05;;
17686;SDS011;8962;52.538;13.266;2023-07-29T07:50:29;7.00;;;4.50;;
17686;SDS011;8962;52.538;13.266;2023-07-29T07:52:57;6.47;;;4.50;;
17686;SDS011;8962;52.538;13.266;2023-07-29T07:55:25;5.80;;;5.20;;
17686;SDS011;8962;52.538;13.266;2023-07-29T07:57:54;4.57;;;4.18;;
17686;SDS011;8962;52.538;13.266;2023-07-29T08:00:23;4.35;;;3.92;;
17686;SDS011;8962;52.538;13.266;2023-07-29T08:02:50;6.55;;;5.38;;
17686;SDS011;8962;52.538;13.266;2023-07-29T08:05:17;4.90;;;3.90;;
17686;SDS011;8962;52.538;13.266;2023-07-29T08:07:45;4.30;;;3.90;;
17686;SDS011;8962;52.538;13.266;2023-07-29T08:10:12;5.13;;;4.00;;
17686;SDS011;8962;52.538;13.266;2023-07-29T08:12:39;5.57;;;3.63;;
17686;SDS011;8962;52.538;13.266;2023-07-29T08:15:07;6.97;;;3.70;;
17686;SDS011;8962;52.538;13.266;2023-07-29T08:17:36;4.57;;;4.03;;
17686;SDS011;8962;52.538;13.266;2023-07-29T08:20:03;3.80;;;3.50;;
17686;SDS011;8962;52.538;13.266;2023-07-29T08:22:34;5.25;;;3.28;;
17686;SDS011;8962;52.538;13.266;2023-07-29T08:25:02;5.70;;;3.33;;
17686;SDS011;8962;52.538;13.266;2023-07-29T08:27:33;4.53;;;3.05;;
17686;SDS011;8962;52.538;13.266;2023-07-29T08:30:01;3.63;;;3.17;;
17686;SDS011;8962;52.538;13.266;2023-07-29T08:32:28;3.40;;;3.10;;
17686;SDS011;8962;52.538;13.266;2023-07-29T08:34:56;3.85;;;3.42;;
17686;SDS011;8962;52.538;13.266;2023-07-29T08:37:23;6.32;;;3.20;;
17686;SDS011;8962;52.538;13.266;2023-07-29T08:39:52;11.60;;;4.20;;
17686;SDS011;8962;52.538;13.266;2023-07-29T08:42:20;8.05;;;4.28;;
17686;SDS011;8962;52.538;13.266;2023-07-29T08:44:49;4.35;;;3.15;;
17686;SDS011;8962;52.538;13.266;2023-07-29T08:47:20;6.85;;;4.32;;
17686;SDS011;8962;52.538;13.266;2023-07-29T08:49:48;3.47;;;3.17;;
17686;SDS011;8962;52.538;13.266;2023-07-29T08:52:20;3.97;;;3.13;;
17686;SDS011;8962;52.538;13.266;2023-07-29T08:54:48;3.42;;;3.13;;
17686;SDS011;8962;52.538;13.266;2023-07-29T08:57:16;3.50;;;3.20;;
17686;SDS011;8962;52.538;13.266;2023-07-29T08:59:43;3.60;;;3.10;;
17686;SDS011;8962;52.538;13.266;2023-07-29T09:02:11;5.03;;;3.67;;
17686;SDS011;8962;52.538;13.266;2023-07-29T09:04:39;4.50;;;3.30;;
17686;SDS011;8962;52.538;13.266;2023-07-29T09:07:06;4.30;;;3.15;;
17686;SDS011;8962;52.538;13.266;2023-07-29T09:09:35;3.47;;;2.83;;
17686;SDS011;8962;52.538;13.266;2023-07-29T09:12:03;3.20;;;2.80;;
17686;SDS011;8962;52.538;13.266;2023-07-29T09:14:31;2.80;;;2.60;;
17686;SDS011;8962;52.538;13.266;2023-07-29T09:16:58;14.98;;;5.25;;
17686;SDS011;8962;52.538;13.266;2023-07-29T09:19:26;3.58;;;3.20;;
17686;SDS011;8962;52.538;13.266;2023-07-29T09:21:57;4.88;;;2.92;;
17686;SDS011;8962;52.538;13.266;2023-07-29T09:24:24;5.53;;;3.33;;
17686;SDS011;8962;52.538;13.266;2023-07-29T09:26:56;8.50;;;4.60;;
17686;SDS011;8962;52.538;13.266;2023-07-29T09:29:24;5.70;;;4.40;;
17686;SDS011;8962;52.538;13.266;2023-07-29T09:31:56;8.32;;;3.50;;
17686;SDS011;8962;52.538;13.266;2023-07-29T09:34:47;4.47;;;3.22;;
17686;SDS011;8962;52.538;13.266;2023-07-29T09:37:18;3.45;;;2.85;;
17686;SDS011;8962;52.538;13.266;2023-07-29T09:39:47;6.75;;;4.53;;
17686;SDS011;8962;52.538;13.266;2023-07-29T09:42:27;3.83;;;3.15;;
17686;SDS011;8962;52.538;13.266;2023-07-29T09:44:54;5.53;;;3.30;;
17686;SDS011;8962;52.538;13.266;2023-07-29T09:47:24;3.28;;;2.67;;
17686;SDS011;8962;52.538;13.266;2023-07-29T09:49:52;5.00;;;2.60;;
17686;SDS011;8962;52.538;13.266;2023-07-29T09:52:20;5.60;;;3.30;;
17686;SDS011;8962;52.538;13.266;2023-07-29T09:54:49;5.97;;;3.83;;
17686;SDS011;8962;52.538;13.266;2023-07-29T09:57:18;2.90;;;2.60;;
17686;SDS011;8962;52.538;13.266;2023-07-29T09:59:58;9.65;;;5.60;;
17686;SDS011;8962;52.538;13.266;2023-07-29T10:02:26;4.25;;;3.33;;
17686;SDS011;8962;52.538;13.266;2023-07-29T10:04:54;3.75;;;2.92;;
17686;SDS011;8962;52.538;13.266;2023-07-29T10:07:24;7.80;;;3.95;;
17686;SDS011;8962;52.538;13.266;2023-07-29T10:09:52;4.82;;;2.53;;
17686;SDS011;8962;52.538;13.266;2023-07-29T10:12:22;3.03;;;2.72;;
17686;SDS011;8962;52.538;13.266;2023-07-29T10:14:51;6.22;;;4.07;;
17686;SDS011;8962;52.538;13.266;2023-07-29T10:17:19;5.35;;;3.22;;
17686;SDS011;8962;52.538;13.266;2023-07-29T10:19:48;4.88;;;3.10;;
17686;SDS011;8962;52.538;13.266;2023-07-29T10:22:17;3.78;;;2.80;;
17686;SDS011;8962;52.538;13.266;2023-07-29T10:24:47;6.03;;;3.72;;
17686;SDS011;8962;52.538;13.266;2023-07-29T10:27:20;8.40;;;4.72;;
17686;SDS011;8962;52.538;13.266;2023-07-29T10:29:51;5.63;;;3.60;;
17686;SDS011;8962;52.538;13.266;2023-07-29T10:32:22;8.20;;;4.30;;
17686;SDS011;8962;52.538;13.266;2023-07-29T10:34:51;4.65;;;3.30;;
17686;SDS011;8962;52.538;13.266;2023-07-29T10:37:19;5.78;;;3.35;;
17686;SDS011;8962;52.538;13.266;2023-07-29T10:39:51;6.53;;;3.90;;
17686;SDS011;8962;52.538;13.266;2023-07-29T10:42:20;11.00;;;6.65;;
17686;SDS011;8962;52.538;13.266;2023-07-29T10:44:50;4.03;;;3.35;;
17686;SDS011;8962;52.538;13.266;2023-07-29T10:47:23;3.17;;;2.88;;
17686;SDS011;8962;52.538;13.266;2023-07-29T10:49:52;4.43;;;2.92;;
17686;SDS011;8962;52.538;13.266;2023-07-29T10:52:39;3.65;;;2.83;;
17686;SDS011;8962;52.538;13.266;2023-07-29T10:55:27;3.78;;;2.60;;
17686;SDS011;8962;52.538;13.266;2023-07-29T10:58:06;5.82;;;3.00;;
17686;SDS011;8962;52.538;13.266;2023-07-29T11:00:41;3.55;;;3.25;;
17686;SDS011;8962;52.538;13.266;2023-07-29T11:03:09;3.53;;;2.90;;
17686;SDS011;8962;52.538;13.266;2023-07-29T11:05:42;3.55;;;2.45;;
17686;SDS011;8962;52.538;13.266;2023-07-29T11:08:21;7.85;;;3.65;;
17686;SDS011;8962;52.538;13.266;2023-07-29T11:11:00;36.75;;;6.05;;
17686;SDS011;8962;52.538;13.266;2023-07-29T11:13:29;4.38;;;2.42;;
17686;SDS011;8962;52.538;13.266;2023-07-29T11:15:59;11.90;;;5.18;;
17686;SDS011;8962;52.538;13.266;2023-07-29T11:18:27;10.00;;;1.73;;
17686;SDS011;8962;52.538;13.266;2023-07-29T11:20:56;2.85;;;1.50;;
17686;SDS011;8962;52.538;13.266;2023-07-29T11:23:28;2.90;;;1.55;;
17686;SDS011;8962;52.538;13.266;2023-07-29T11:25:56;2.47;;;1.33;;
17686;SDS011;8962;52.538;13.266;2023-07-29T11:28:24;4.25;;;2.30;;
17686;SDS011;8962;52.538;13.266;2023-07-29T11:30:51;5.75;;;3.17;;
17686;SDS011;8962;52.538;13.266;2023-07-29T11:33:22;5.03;;;3.55;;
17686;SDS011;8962;52.538;13.266;2023-07-29T11:35:51;5.88;;;3.28;;
17686;SDS011;8962;52.538;13.266;2023-07-29T11:38:19;5.68;;;3.67;;
17686;SDS011;8962;52.538;13.266;2023-07-29T11:40:55;3.60;;;3.20;;
17686;SDS011;8962;52.538;13.266;2023-07-29T11:43:23;5.32;;;3.80;;
17686;SDS011;8962;52.538;13.266;2023-07-29T11:45:51;4.70;;;3.50;;
17686;SDS011;8962;52.538;13.266;2023-07-29T11:48:28;6.97;;;4.60;;
17686;SDS011;8962;52.538;13.266;2023-07-29T11:50:58;6.35;;;4.07;;
17686;SDS011;8962;52.538;13.266;2023-07-29T11:53:26;5.82;;;3.90;;
17686;SDS011;8962;52.538;13.266;2023-07-29T11:55:55;5.05;;;3.70;;
17686;SDS011;8962;52.538;13.266;2023-07-29T11:58:23;9.43;;;4.40;;
17686;SDS011;8962;52.538;13.266;2023-07-29T12:00:51;7.65;;;3.90;;
17686;SDS011;8962;52.538;13.266;2023-07-29T12:03:18;5.03;;;3.60;;
17686;SDS011;8962;52.538;13.266;2023-07-29T12:05:49;6.75;;;4.18;;
17686;SDS011;8962;52.538;13.266;2023-07-29T12:08:17;4.85;;;3.97;;
17686;SDS011;8962;52.538;13.266;2023-07-29T12:10:44;4.80;;;3.72;;
17686;SDS011;8962;52.538;13.266;2023-07-29T12:13:13;6.07;;;3.50;;
17686;SDS011;8962;52.538;13.266;2023-07-29T12:15:40;4.35;;;3.65;;
17686;SDS011;8962;52.538;13.266;2023-07-29T12:18:08;5.63;;;3.90;;
17686;SDS011;8962;52.538;13.266;2023-07-29T12:20:35;6.03;;;3.83;;
17686;SDS011;8962;52.538;13.266;2023-07-29T12:23:04;4.65;;;3.95;;
17686;SDS011;8962;52.538;13.266;2023-07-29T12:25:33;8.52;;;4.10;;
17686;SDS011;8962;52.538;13.266;2023-07-29T12:28:05;5.82;;;4.25;;
17686;SDS011;8962;52.538;13.266;2023-07-29T12:30:32;6.50;;;4.43;;
17686;SDS011;8962;52.538;13.266;2023-07-29T12:33:00;6.22;;;3.80;;
17686;SDS011;8962;52.538;13.266;2023-07-29T12:35:35;4.72;;;3.90;;
17686;SDS011;8962;52.538;13.266;2023-07-29T12:38:05;5.68;;;3.55;;
17686;SDS011;8962;52.538;13.266;2023-07-29T12:40:37;4.68;;;3.90;;
17686;SDS011;8962;52.538;13.266;2023-07-29T12:43:07;5.47;;;3.53;;
17686;SDS011;8962;52.538;13.266;2023-07-29T12:45:36;5.40;;;3.30;;
17686;SDS011;8962;52.538;13.266;2023-07-29T12:48:05;5.05;;;3.67;;
17686;SDS011;8962;52.538;13.266;2023-07-29T12:50:33;3.47;;;2.97;;
17686;SDS011;8962;52.538;13.266;2023-07-29T12:53:00;5.38;;;3.97;;
17686;SDS011;8962;52.538;13.266;2023-07-29T12:55:29;3.88;;;3.15;;
17686;SDS011;8962;52.538;13.266;2023-07-29T12:57:56;4.70;;;2.95;;
17686;SDS011;8962;52.538;13.266;2023-07-29T13:00:24;4.00;;;2.80;;
17686;SDS011;8962;52.538;13.266;2023-07-29T13:02:52;3.50;;;2.83;;
17686;SDS011;8962;52.538;13.266;2023-07-29T13:05:19;5.95;;;3.58;;
17686;SDS011;8962;52.538;13.266;2023-07-29T13:07:46;4.05;;;3.05;;
17686;SDS011;8962;52.538;13.266;2023-07-29T13:10:14;3.67;;;2.83;;
17686;SDS011;8962;52.538;13.266;2023-07-29T13:12:43;4.00;;;2.63;;
17686;SDS011;8962;52.538;13.266;2023-07-29T13:15:10;4.30;;;3.03;;
17686;SDS011;8962;52.538;13.266;2023-07-29T13:17:37;4.72;;;2.78;;
17686;SDS011;8962;52.538;13.266;2023-07-29T13:20:05;2.58;;;2.00;;
17686;SDS011;8962;52.538;13.266;2023-07-29T13:22:34;2.25;;;2.00;;
17686;SDS011;8962;52.538;13.266;2023-07-29T13:25:02;2.20;;;2.00;;
17686;SDS011;8962;52.538;13.266;2023-07-29T13:27:30;3.00;;;2.22;;
17686;SDS011;8962;52.538;13.266;2023-07-29T13:29:59;2.33;;;2.13;;
17686;SDS011;8962;52.538;13.266;2023-07-29T13:32:26;4.10;;;2.15;;
17686;SDS011;8962;52.538;13.266;2023-07-29T13:34:54;3.45;;;2.13;;
17686;SDS011;8962;52.538;13.266;2023-07-29T13:37:22;2.20;;;1.90;;
17686;SDS011;8962;52.538;13.266;2023-07-29T13:39:49;3.60;;;2.00;;
17686;SDS011;8962;52.538;13.266;2023-07-29T13:42:16;4.78;;;1.67;;
17686;SDS011;8962;52.538;13.266;2023-07-29T13:44:44;3.03;;;1.90;;
17686;SDS011;8962;52.538;13.266;2023-07-29T13:47:12;3.65;;;1.50;;
17686;SDS011;8962;52.538;13.266;2023-07-29T13:49:40;3.53;;;1.70;;
17686;SDS011;8962;52.538;13.266;2023-07-29T13:52:07;3.53;;;2.08;;
17686;SDS011;8962;52.538;13.266;2023-07-29T13:54:36;3.15;;;2.20;;
17686;SDS011;8962;52.538;13.266;2023-07-29T13:57:04;3.83;;;2.03;;
17686;SDS011;8962;52.538;13.266;2023-07-29T13:59:32;2.00;;;1.63;;
17686;SDS011;8962;52.538;13.266;2023-07-29T14:01:59;2.90;;;1.40;;
17686;SDS011;8962;52.538;13.266;2023-07-29T14:04:28;2.20;;;1.40;;
17686;SDS011;8962;52.538;13.266;2023-07-29T14:06:56;2.38;;;1.67;;
17686;SDS011;8962;52.538;13.266;2023-07-29T14:09:23;6.88;;;3.50;;
17686;SDS011;8962;52.538;13.266;2023-07-29T14:11:50;6.03;;;2.90;;
17686;SDS011;8962;52.538;13.266;2023-07-29T14:14:18;2.22;;;1.50;;
17686;SDS011;8962;52.538;13.266;2023-07-29T14:16:45;5.22;;;2.70;;
17686;SDS011;8962;52.538;13.266;2023-07-29T14:19:14;1.42;;;1.10;;
17686;SDS011;8962;52.538;13.266;2023-07-29T14:21:44;4.53;;;2.00;;
17686;SDS011;8962;52.538;13.266;2023-07-29T14:24:11;2.83;;;1.50;;
17686;SDS011;8962;52.538;13.266;2023-07-29T14:26:38;2.70;;;1.17;;
17686;SDS011;8962;52.538;13.266;2023-07-29T14:29:05;3.55;;;1.88;;
17686;SDS011;8962;52.538;13.266;2023-07-29T14:31:32;9.43;;;4.35;;
17686;SDS011;8962;52.538;13.266;2023-07-29T14:34:00;5.70;;;2.97;;
17686;SDS011;8962;52.538;13.266;2023-07-29T14:36:27;1.95;;;1.50;;
17686;SDS011;8962;52.538;13.266;2023-07-29T14:38:55;2.03;;;1.50;;
17686;SDS011;8962;52.538;13.266;2023-07-29T14:41:22;2.50;;;1.60;;
17686;SDS011;8962;52.538;13.266;2023-07-29T14:43:50;1.80;;;1.40;;
17686;SDS011;8962;52.538;13.266;2023-07-29T14:46:17;2.92;;;2.10;;